Time;durP1;ratioP1;P1;durP2;ratioP2;P2;SDS_P1;SDS_P2;PMS_P1;PMS_P2;Temp;Humidity;BMP_temperature;BMP_pressure;BME280_temperature;BME280_humidity;BME280_pressure;Samples;Min_cycle;Max_cycle;Signal;HPM_P1;HPM_P2
2021/03/30 00:00:10;;;;;;;;;;;;;;;7.21;76.18;102893.97;5076388;28;1027;-74
2021/03/30 00:02:35;;;;;;;;;;;;;;;7.17;76.53;102895.63;5076211;28;896;-74
2021/03/30 00:05:01;;;;;;;;;;;;;;;7.30;76.81;102893.19;5076134;28;994;-74
2021/03/30 00:07:26;;;;;;;;;;;;;;;7.42;76.66;102898.41;5075415;28;1160;-74
2021/03/30 00:09:51;;;;;;;;;;;;;;;7.32;76.87;102901.16;5076071;28;990;-74
2021/03/30 00:12:17;;;;;;;;;;;;;;;7.20;77.62;102900.56;5075850;28;924;-74
2021/03/30 00:14:43;;;;;;;;;;;;;;;7.28;77.92;102903.59;5075831;28;847;-74
2021/03/30 00:17:08;;;;;;;;;;;;;;;7.25;77.51;102901.44;5075291;28;1902;-73
2021/03/30 00:19:34;;;;;;;;;;;;;;;7.28;78.00;102903.59;5075785;28;932;-74
2021/03/30 00:21:59;;;;;;;;;;;;;;;7.37;78.95;102892.94;5076104;28;978;-74
2021/03/30 00:24:24;;;;;;;;;;;;;;;7.44;78.57;102896.25;5075580;28;1039;-74
2021/03/30 00:26:50;;;;;;;;;;;;;;;7.36;78.40;102904.19;5075494;28;1212;-74
2021/03/30 00:29:15;;;;;;;;;;;;;;;7.41;79.29;102898.72;5075036;28;1006;-74
2021/03/30 00:31:40;;;;;;;;;;;;;;;7.44;78.94;102901.75;5075563;28;946;-74
2021/03/30 00:34:05;;;;;;;;;;;;;;;7.44;79.93;102903.66;5057692;28;1211;-74
2021/03/30 00:36:31;;;;;;;;;;;;;;;7.46;79.68;102902.28;5074217;28;1898;-74
2021/03/30 00:38:56;;;;;;;;;;;;;;;7.49;79.53;102900.91;5075140;28;816;-74
2021/03/30 00:41:22;;;;;;;;;;;;;;;7.46;80.21;102902.28;5057767;28;1607;-74
2021/03/30 00:43:47;;;;;;;;;;;;;;;7.45;79.84;102897.88;5075668;28;967;-73
2021/03/30 00:46:16;;;;;;;;;;;;;;;7.51;79.97;102895.97;5075235;28;1193;-74
2021/03/30 00:48:44;;;;;;;;;;;;;;;7.51;79.89;102898.72;5074828;28;841;-74
2021/03/30 00:51:09;;;;;;;;;;;;;;;7.44;80.51;102896.25;5075206;28;808;-73
2021/03/30 00:53:35;;;;;;;;;;;;;;;7.39;80.69;102895.38;5075320;28;987;-74
2021/03/30 00:56:01;;;;;;;;;;;;;;;7.34;81.23;102901.72;5074946;28;1969;-74
2021/03/30 00:58:26;;;;;;;;;;;;;;;7.34;81.18;102894.28;5074699;28;916;-74
2021/03/30 01:00:52;;;;;;;;;;;;;;;7.41;81.09;102895.97;5074871;28;880;-74
2021/03/30 01:03:17;;;;;;;;;;;;;;;7.40;80.54;102894.31;5057108;28;1342;-74
2021/03/30 01:05:42;;;;;;;;;;;;;;;7.33;81.37;102903.63;5075031;28;1026;-74
2021/03/30 01:08:49;;;;;;;;;;;;;;;7.29;81.77;102896.22;5074353;28;1180;-73
2021/03/30 01:11:23;;;;;;;;;;;;;;;7.20;81.90;102900.56;5074849;28;868;-73
2021/03/30 01:14:00;;;;;;;;;;;;;;;7.17;81.89;102901.94;5074879;28;975;-74
2021/03/30 01:16:40;;;;;;;;;;;;;;;7.04;82.48;102900.53;5074819;28;1890;-73
2021/03/30 01:19:35;;;;;;;;;;;;;;;6.98;82.73;102904.34;5074292;28;1061;-74
2021/03/30 01:22:06;;;;;;;;;;;;;;;7.02;82.66;102902.72;5074715;28;1010;-74
2021/03/30 01:24:44;;;;;;;;;;;;;;;7.05;82.80;102899.44;5074669;28;975;-74
2021/03/30 01:27:32;;;;;;;;;;;;;;;6.96;82.85;102901.06;5073899;28;1331;-74
2021/03/30 01:30:00;;;;;;;;;;;;;;;6.96;83.01;102904.63;5074481;28;1116;-74
2021/03/30 01:32:35;;;;;;;;;;;;;;;6.97;82.68;102895.28;5074507;28;1091;-74
2021/03/30 01:35:03;;;;;;;;;;;;;;;6.94;83.14;102898.56;5074458;28;950;-74
2021/03/30 01:37:34;;;;;;;;;;;;;;;7.08;82.47;102887.91;5073676;28;1961;-74
2021/03/30 01:40:01;;;;;;;;;;;;;;;7.04;81.80;102892.31;5074664;28;867;-74
2021/03/30 01:42:30;;;;;;;;;;;;;;;6.95;82.61;102891.16;5074642;28;872;-74
2021/03/30 01:44:59;;;;;;;;;;;;;;;6.91;82.75;102888.13;5074460;28;867;-74
2021/03/30 01:47:27;;;;;;;;;;;;;;;6.87;82.85;102888.91;5055556;28;1189;-74
2021/03/30 01:49:52;;;;;;;;;;;;;;;6.88;83.09;102893.31;5074467;28;994;-74
2021/03/30 01:52:19;;;;;;;;;;;;;;;6.82;83.46;102894.38;5074507;28;991;-74
2021/03/30 01:54:47;;;;;;;;;;;;;;;6.82;83.36;102891.63;5074555;28;804;-74
2021/03/30 01:57:14;;;;;;;;;;;;;;;6.78;82.95;102892.19;5073615;28;1951;-74
2021/03/30 01:59:42;;;;;;;;;;;;;;;6.87;82.80;102894.41;5074130;28;1130;-74
2021/03/30 02:02:09;;;;;;;;;;;;;;;6.87;82.64;102894.41;5074346;28;800;-74
2021/03/30 02:04:35;;;;;;;;;;;;;;;6.82;82.57;102894.38;5074245;28;927;-74
2021/03/30 02:07:02;;;;;;;;;;;;;;;6.91;82.60;102890.88;5073741;28;1220;-73
2021/03/30 02:09:33;;;;;;;;;;;;;;;6.95;82.09;102886.47;5074237;28;792;-73
2021/03/30 02:12:07;;;;;;;;;;;;;;;6.89;82.59;102884.81;5074265;28;922;-74
2021/03/30 02:14:33;;;;;;;;;;;;;;;6.99;81.62;102889.53;5074301;28;910;-74
2021/03/30 02:17:01;;;;;;;;;;;;;;;7.03;81.01;102896.13;5074271;28;1893;-74
2021/03/30 02:19:35;;;;;;;;;;;;;;;6.97;81.30;102895.28;5074009;28;979;-74
2021/03/30 02:22:07;;;;;;;;;;;;;;;7.04;80.89;102897.78;5074322;28;1011;-74
2021/03/30 02:24:35;;;;;;;;;;;;;;;7.02;80.89;102897.22;5074498;28;586;-74
2021/03/30 02:27:05;;;;;;;;;;;;;;;6.96;81.02;102893.63;5073468;28;1173;-74
2021/03/30 02:29:34;;;;;;;;;;;;;;;6.93;80.81;102896.09;5074018;28;816;-74
2021/03/30 02:32:04;;;;;;;;;;;;;;;6.92;80.74;102891.69;5056596;28;835;-74
2021/03/30 02:34:33;;;;;;;;;;;;;;;6.94;80.76;102887.59;5073892;28;998;-74
2021/03/30 02:36:59;;;;;;;;;;;;;;;6.86;80.89;102888.09;5073794;28;1941;-74
2021/03/30 02:39:26;;;;;;;;;;;;;;;6.85;80.40;102885.63;5073691;28;859;-74
2021/03/30 02:41:54;;;;;;;;;;;;;;;6.87;80.36;102891.66;5074595;28;974;-74
2021/03/30 02:44:21;;;;;;;;;;;;;;;6.81;80.33;102887.25;5074183;28;883;-74
2021/03/30 02:46:49;;;;;;;;;;;;;;;6.90;80.31;102888.38;5073715;28;1227;-74
2021/03/30 02:49:17;;;;;;;;;;;;;;;6.84;80.11;102886.72;5073357;28;860;-74
2021/03/30 02:51:45;;;;;;;;;;;;;;;6.83;79.91;102885.06;5073669;28;1002;-73
2021/03/30 02:54:11;;;;;;;;;;;;;;;6.76;79.94;102880.63;5073714;28;1015;-74
2021/03/30 02:56:37;;;;;;;;;;;;;;;6.72;79.78;102882.28;5056079;28;1969;-74
2021/03/30 02:59:03;;;;;;;;;;;;;;;6.64;79.98;102882.78;5073238;28;833;-74
2021/03/30 03:01:31;;;;;;;;;;;;;;;6.57;80.34;102883.03;5077094;28;967;-74
2021/03/30 03:04:00;;;;;;;;;;;;;;;6.58;80.17;102884.69;5060754;28;800;-74
2021/03/30 03:06:25;;;;;;;;;;;;;;;6.61;79.54;102891.56;5059558;28;1307;-74
2021/03/30 03:08:53;;;;;;;;;;;;;;;6.59;79.64;102886.34;5076702;28;917;-74
2021/03/30 03:11:19;;;;;;;;;;;;;;;6.58;79.44;102884.69;5077251;28;836;-74
2021/03/30 03:13:47;;;;;;;;;;;;;;;6.57;79.41;102885.78;5077132;28;816;-74
2021/03/30 03:16:13;;;;;;;;;;;;;;;6.49;79.47;102889.03;5076926;28;1898;-74
2021/03/30 03:18:41;;;;;;;;;;;;;;;6.51;79.23;102895.06;5076537;28;801;-74
2021/03/30 03:21:09;;;;;;;;;;;;;;;6.47;79.15;102893.13;5076997;28;809;-74
2021/03/30 03:23:37;;;;;;;;;;;;;;;6.53;78.45;102889.31;5076843;28;986;-74
2021/03/30 03:26:02;;;;;;;;;;;;;;;6.58;78.28;102883.88;5076801;28;1306;-74
2021/03/30 03:28:28;;;;;;;;;;;;;;;6.54;78.39;102882.72;5076281;28;1023;-74
2021/03/30 03:30:53;;;;;;;;;;;;;;;6.48;78.09;102881.88;5076722;28;891;-74
2021/03/30 03:33:19;;;;;;;;;;;;;;;6.42;77.84;102888.44;5076667;28;947;-74
2021/03/30 03:36:11;;;;;;;;;;;;;;;6.42;77.87;102888.44;5076684;28;1914;-74
2021/03/30 03:38:39;;;;;;;;;;;;;;;6.35;78.43;102896.91;5076519;28;818;-74
2021/03/30 03:41:13;;;;;;;;;;;;;;;6.34;78.09;102898.00;5076512;28;924;-74
2021/03/30 03:43:38;;;;;;;;;;;;;;;6.40;77.55;102896.09;5076607;28;1212;-74
2021/03/30 03:46:04;;;;;;;;;;;;;;;6.37;77.57;102896.66;5076376;28;1208;-74
2021/03/30 03:48:29;;;;;;;;;;;;;;;6.30;77.95;102885.06;5075848;28;979;-74
2021/03/30 03:51:00;;;;;;;;;;;;;;;6.25;77.65;102893.28;5076324;28;860;-74
2021/03/30 03:53:27;;;;;;;;;;;;;;;6.20;77.93;102886.66;5076384;28;804;-74
2021/03/30 03:55:55;;;;;;;;;;;;;;;6.20;77.55;102892.13;5076127;28;1905;-74
2021/03/30 03:58:24;;;;;;;;;;;;;;;6.17;77.54;102894.59;5075571;28;931;-74
2021/03/30 04:00:51;;;;;;;;;;;;;;;6.24;77.20;102889.69;5076515;28;983;-74
2021/03/30 04:03:25;;;;;;;;;;;;;;;6.29;76.74;102889.72;5076117;28;792;-74
2021/03/30 04:06:08;;;;;;;;;;;;;;;6.29;76.23;102892.47;5076206;28;1192;-74
2021/03/30 04:08:35;;;;;;;;;;;;;;;6.24;76.43;102895.19;5075467;28;808;-74
2021/03/30 04:11:04;;;;;;;;;;;;;;;6.16;76.58;102893.78;5057910;28;1233;-74
2021/03/30 04:13:31;;;;;;;;;;;;;;;6.15;76.55;102905.00;5075809;28;958;-74
2021/03/30 04:16:02;;;;;;;;;;;;;;;6.16;76.14;102896.50;5075833;28;1898;-74
2021/03/30 04:18:28;;;;;;;;;;;;;;;6.18;75.89;102902.56;5075223;28;773;-74
2021/03/30 04:20:54;;;;;;;;;;;;;;;6.18;75.60;102905.31;5075821;28;903;-74
2021/03/30 04:23:23;;;;;;;;;;;;;;;6.21;75.45;102912.16;5057763;28;1788;-74
2021/03/30 04:25:49;;;;;;;;;;;;;;;6.26;75.05;102911.38;5075539;28;1260;-74
2021/03/30 04:28:14;;;;;;;;;;;;;;;6.17;75.45;102917.34;5075106;28;1027;-74
2021/03/30 04:30:41;;;;;;;;;;;;;;;6.20;74.88;102916.84;5075431;28;892;-74
2021/03/30 04:33:06;;;;;;;;;;;;;;;6.26;74.30;102917.69;5075507;28;971;-74
2021/03/30 04:35:31;;;;;;;;;;;;;;;6.19;74.71;102917.09;5075468;28;1951;-74
2021/03/30 04:37:56;;;;;;;;;;;;;;;6.11;74.66;102923.91;5075300;28;1258;-74
2021/03/30 04:40:23;;;;;;;;;;;;;;;6.22;74.23;102925.63;5075292;28;1042;-74
2021/03/30 04:42:48;;;;;;;;;;;;;;;6.17;74.48;102928.31;5075202;28;845;-74
2021/03/30 04:45:14;;;;;;;;;;;;;;;6.15;74.01;102930.50;5075661;28;931;-74
2021/03/30 04:47:39;;;;;;;;;;;;;;;6.11;74.21;102929.38;5074784;28;1265;-74
2021/03/30 04:50:06;;;;;;;;;;;;;;;6.05;74.34;102937.84;5075288;28;825;-74
2021/03/30 04:52:31;;;;;;;;;;;;;;;6.05;74.09;102937.84;5074973;28;765;-74
2021/03/30 04:54:57;;;;;;;;;;;;;;;6.02;74.06;102947.41;5075199;28;785;-74
2021/03/30 04:57:22;;;;;;;;;;;;;;;6.03;73.92;102946.31;5074565;28;1894;-74
2021/03/30 04:59:48;;;;;;;;;;;;;;;6.08;73.77;102954.59;5075027;28;1047;-74
2021/03/30 05:02:13;;;;;;;;;;;;;;;6.02;73.91;102961.13;5075010;28;967;-74
2021/03/30 05:04:38;;;;;;;;;;;;;;;6.03;73.63;102958.09;5075116;28;884;-74
2021/03/30 05:07:04;;;;;;;;;;;;;;;6.08;73.61;102962.81;5073598;28;1271;-74
2021/03/30 05:09:29;;;;;;;;;;;;;;;6.08;73.38;102962.81;5074444;28;781;-74
2021/03/30 05:11:55;;;;;;;;;;;;;;;6.05;73.16;102959.78;5074370;28;777;-74
2021/03/30 05:14:20;;;;;;;;;;;;;;;6.08;73.27;102967.50;5074292;28;1042;-74
2021/03/30 05:16:45;;;;;;;;;;;;;;;6.09;73.28;102961.75;5074379;28;1901;-74
2021/03/30 05:19:10;;;;;;;;;;;;;;;6.17;72.55;102960.41;5073542;28;804;-74
2021/03/30 05:21:36;;;;;;;;;;;;;;;6.28;71.83;102964.06;5074549;28;844;-74
2021/03/30 05:24:01;;;;;;;;;;;;;;;6.36;71.54;102964.41;5073967;28;897;-73
2021/03/30 05:26:26;;;;;;;;;;;;;;;6.54;70.67;102967.81;5075090;28;1323;-74
2021/03/30 05:28:52;;;;;;;;;;;;;;;6.64;70.44;102964.31;5074121;28;906;-74
2021/03/30 05:31:17;;;;;;;;;;;;;;;6.84;70.15;102963.63;5074566;28;1037;-74
2021/03/30 05:33:42;;;;;;;;;;;;;;;7.32;68.46;102962.44;5074521;28;1088;-74
2021/03/30 05:36:09;;;;;;;;;;;;;;;7.61;66.76;102961.94;5074358;28;1906;-74
2021/03/30 05:38:34;;;;;;;;;;;;;;;7.94;66.19;102964.50;5073859;28;1066;-74
2021/03/30 05:41:03;;;;;;;;;;;;;;;7.92;65.01;102970.25;5074445;28;884;-74
2021/03/30 05:43:28;;;;;;;;;;;;;;;7.59;65.87;102974.34;5074579;28;1066;-74
2021/03/30 05:45:59;;;;;;;;;;;;;;;7.52;67.05;102971.84;5074529;28;1275;-74
2021/03/30 05:48:24;;;;;;;;;;;;;;;7.49;65.77;102967.72;5073774;28;785;-74
2021/03/30 05:50:50;;;;;;;;;;;;;;;8.35;63.77;102976.31;5074270;28;792;-74
2021/03/30 05:53:16;;;;;;;;;;;;;;;9.00;61.04;102972.91;5074260;28;868;-74
2021/03/30 05:55:45;;;;;;;;;;;;;;;9.82;59.02;102977.16;5074276;28;1909;-74
2021/03/30 05:58:11;;;;;;;;;;;;;;;11.05;54.60;102976.03;5073867;28;1244;-74
2021/03/30 06:00:41;;;;;;;;;;;;;;;12.59;50.63;102970.94;5074343;28;844;-74
2021/03/30 06:03:09;;;;;;;;;;;;;;;13.28;49.11;102972.88;5074192;28;1003;-74
2021/03/30 06:05:36;;;;;;;;;;;;;;;13.86;47.59;102968.53;5074127;28;838;-74
2021/03/30 06:08:02;;;;;;;;;;;;;;;14.60;44.66;102970.00;5073738;28;1250;-74
2021/03/30 06:10:29;;;;;;;;;;;;;;;15.38;43.89;102966.66;5074232;28;1038;-75
2021/03/30 06:12:56;;;;;;;;;;;;;;;15.87;42.47;102967.34;5074148;28;859;-74
2021/03/30 06:15:30;;;;;;;;;;;;;;;16.39;41.05;102966.44;5074080;28;830;-75
2021/03/30 06:17:56;;;;;;;;;;;;;;;16.80;39.81;102966.94;5073335;28;1943;-74
2021/03/30 06:20:25;;;;;;;;;;;;;;;16.67;39.09;102975.22;5074316;28;765;-75
2021/03/30 06:22:53;;;;;;;;;;;;;;;16.57;39.52;102974.75;5074098;28;821;-75
2021/03/30 06:25:45;;;;;;;;;;;;;;;17.52;37.58;102983.81;5073842;28;995;-74
2021/03/30 06:28:20;;;;;;;;;;;;;;;18.90;33.63;102978.00;5055517;28;1650;-75
2021/03/30 06:31:14;;;;;;;;;;;;;;;19.89;32.06;102987.03;5074031;28;920;-75
2021/03/30 06:33:58;;;;;;;;;;;;;;;20.58;30.37;102988.91;5073875;28;848;-75
2021/03/30 06:36:25;;;;;;;;;;;;;;;21.44;29.55;102992.97;5077182;28;1957;-75
2021/03/30 06:39:01;;;;;;;;;;;;;;;22.16;28.35;102995.31;5077129;28;943;-75
2021/03/30 06:41:48;;;;;;;;;;;;;;;22.96;26.58;102984.28;5059643;28;840;-75
2021/03/30 06:44:29;;;;;;;;;;;;;;;22.12;26.95;102988.81;5078065;28;828;-76
2021/03/30 06:46:56;;;;;;;;;;;;;;;23.02;27.47;102984.78;5077647;28;1265;-75
2021/03/30 06:49:24;;;;;;;;;;;;;;;23.09;27.00;102984.91;5076931;28;852;-75
2021/03/30 06:51:49;;;;;;;;;;;;;;;22.81;25.79;102985.25;5077693;28;852;-75
2021/03/30 06:54:15;;;;;;;;;;;;;;;22.46;26.27;102997.50;5077383;28;950;-75
2021/03/30 06:56:58;;;;;;;;;;;;;;;22.72;26.58;102993.97;5077234;28;2019;-75
2021/03/30 06:59:25;;;;;;;;;;;;;;;21.69;27.62;103002.00;5076804;28;824;-75
2021/03/30 07:01:54;;;;;;;;;;;;;;;20.37;29.13;102998.38;5077157;28;987;-75
2021/03/30 07:04:20;;;;;;;;;;;;;;;19.74;30.48;103013.03;5077469;28;900;-75
2021/03/30 07:06:53;;;;;;;;;;;;;;;19.42;31.34;103003.63;5077204;28;1283;-75
2021/03/30 07:09:20;;;;;;;;;;;;;;;19.74;30.87;103010.22;5076929;28;951;-75
2021/03/30 07:11:46;;;;;;;;;;;;;;;19.80;30.92;102997.59;5076970;28;809;-75
2021/03/30 07:14:11;;;;;;;;;;;;;;;19.99;30.51;103008.16;5077031;28;967;-75
2021/03/30 07:16:53;;;;;;;;;;;;;;;20.44;30.68;103003.38;5077147;28;1897;-75
2021/03/30 07:19:24;;;;;;;;;;;;;;;20.43;30.05;102999.75;5076682;28;895;-75
2021/03/30 07:22:00;;;;;;;;;;;;;;;21.06;29.71;103005.75;5077116;28;859;-75
2021/03/30 07:24:31;;;;;;;;;;;;;;;21.22;29.04;103003.75;5076877;28;780;-75
2021/03/30 07:27:05;;;;;;;;;;;;;;;20.71;30.11;103018.56;5076951;28;1259;-75
2021/03/30 07:29:37;;;;;;;;;;;;;;;20.56;30.45;103008.09;5076896;28;855;-75
2021/03/30 07:32:02;;;;;;;;;;;;;;;21.62;29.49;103008.28;5076838;28;824;-76
2021/03/30 07:34:37;;;;;;;;;;;;;;;22.83;27.89;102996.94;5076661;28;813;-76
2021/03/30 07:37:08;;;;;;;;;;;;;;;23.19;26.88;103000.34;5076246;28;1886;-73
2021/03/30 07:39:39;;;;;;;;;;;;;;;24.37;24.84;103001.03;5076992;28;789;-73
2021/03/30 07:42:04;;;;;;;;;;;;;;;25.03;24.63;103001.22;5076803;28;974;-73
2021/03/30 07:44:30;;;;;;;;;;;;;;;25.54;23.79;102993.91;5076280;28;1074;-73
2021/03/30 07:46:56;;;;;;;;;;;;;;;26.39;22.53;102994.59;5075827;28;1319;-74
2021/03/30 07:49:27;;;;;;;;;;;;;;;25.81;23.35;102999.25;5057918;28;821;-74
2021/03/30 07:51:52;;;;;;;;;;;;;;;24.93;25.18;103002.78;5076297;28;851;-73
2021/03/30 07:54:18;;;;;;;;;;;;;;;25.28;24.45;103017.56;5076049;28;769;-74
2021/03/30 07:56:44;;;;;;;;;;;;;;;25.65;23.71;103008.88;5076423;28;1898;-73
2021/03/30 07:59:29;;;;;;;;;;;;;;;24.92;24.46;103015.28;5075537;28;785;-73
2021/03/30 08:01:55;;;;;;;;;;;;;;;24.64;25.40;103009.38;5075873;28;1288;-73
2021/03/30 08:04:25;;;;;;;;;;;;;;;25.64;24.06;103003.63;5075716;28;796;-74
2021/03/30 08:06:51;;;;;;;;;;;;;;;26.44;23.11;103005.53;5076532;28;1224;-76
2021/03/30 08:09:19;;;;;;;;;;;;;;;26.13;23.91;103007.88;5075531;28;812;-74
2021/03/30 08:11:47;;;;;;;;;;;;;;;26.37;22.93;103006.31;5076317;28;875;-73
2021/03/30 08:14:18;;;;;;;;;;;;;;;25.68;24.06;103008.09;5076208;28;872;-72
2021/03/30 08:16:46;;;;;;;;;;;;;;;25.48;24.22;103018.91;5076110;28;1922;-72
2021/03/30 08:19:13;;;;;;;;;;;;;;;25.14;25.12;103016.25;5057608;28;1161;-72
2021/03/30 08:21:58;;;;;;;;;;;;;;;25.29;24.47;103014.34;5075868;28;939;-73
2021/03/30 08:24:28;;;;;;;;;;;;;;;25.17;25.46;103016.66;5075624;28;938;-73
2021/03/30 08:26:54;;;;;;;;;;;;;;;26.97;22.65;103012.41;5075853;28;1165;-73
2021/03/30 08:29:31;;;;;;;;;;;;;;;27.43;22.84;103007.91;5075130;28;1089;-73
2021/03/30 08:31:58;;;;;;;;;;;;;;;27.70;22.17;103002.53;5075641;28;781;-73
2021/03/30 08:34:27;;;;;;;;;;;;;;;28.15;21.62;103011.25;5075493;28;865;-73
2021/03/30 08:36:57;;;;;;;;;;;;;;;27.31;22.32;103009.16;5075523;28;1902;-73
2021/03/30 08:39:22;;;;;;;;;;;;;;;28.32;21.64;102998.94;5074610;28;1127;-73
2021/03/30 08:41:48;;;;;;;;;;;;;;;29.33;20.93;103003.81;5075305;28;975;-73
2021/03/30 08:44:16;;;;;;;;;;;;;;;30.56;19.67;102995.22;5075666;28;833;-73
2021/03/30 08:46:45;;;;;;;;;;;;;;;31.36;18.67;102994.59;5074966;28;1295;-73
2021/03/30 08:49:32;;;;;;;;;;;;;;;30.43;19.47;103005.59;5074005;28;885;-72
2021/03/30 08:52:01;;;;;;;;;;;;;;;31.05;19.18;102993.97;5074957;28;793;-72
2021/03/30 08:54:36;;;;;;;;;;;;;;;30.93;19.43;102999.06;5075078;28;940;-72
2021/03/30 08:57:13;;;;;;;;;;;;;;;30.18;19.91;102995.38;5073927;28;1973;-71
2021/03/30 08:59:39;;;;;;;;;;;;;;;30.06;20.57;102998.03;5072262;28;1338;-72
2021/03/30 09:02:09;;;;;;;;;;;;;;;31.38;20.12;103005.56;5075165;28;789;-72
2021/03/30 09:04:43;;;;;;;;;;;;;;;31.79;19.32;103004.34;5075088;28;793;-73
2021/03/30 09:07:09;;;;;;;;;;;;;;;32.27;19.06;103011.41;5074376;28;1331;-73
2021/03/30 09:09:37;;;;;;;;;;;;;;;30.72;19.79;103007.97;5074737;28;859;-72
2021/03/30 09:12:20;;;;;;;;;;;;;;;31.09;20.50;102995.50;5074638;28;882;-72
2021/03/30 09:14:47;;;;;;;;;;;;;;;31.78;19.14;102994.94;5074647;28;940;-72
2021/03/30 09:17:16;;;;;;;;;;;;;;;29.82;20.95;103006.47;5074433;28;1910;-72
2021/03/30 09:19:44;;;;;;;;;;;;;;;29.83;20.83;103010.13;5074611;28;911;-72
2021/03/30 09:22:19;;;;;;;;;;;;;;;30.69;20.29;103003.94;5074498;28;797;-72
2021/03/30 09:25:34;;;;;;;;;;;;;;;31.71;20.90;103014.28;5074476;28;773;-72
2021/03/30 09:27:53;;;;;;;;;;;;;;;31.18;20.73;103008.41;5073417;28;1499;-73
2021/03/30 09:30:21;;;;;;;;;;;;;;;32.10;18.91;103012.63;5074487;28;991;-73
2021/03/30 09:32:48;;;;;;;;;;;;;;;31.44;19.73;103009.50;5074524;28;1067;-74
2021/03/30 09:35:17;;;;;;;;;;;;;;;31.65;19.86;103003.38;5074177;28;919;-73
2021/03/30 09:37:47;;;;;;;;;;;;;;;30.93;20.08;103013.31;5073860;28;1961;-73
2021/03/30 09:40:17;;;;;;;;;;;;;;;31.27;19.51;103012.28;5074503;28;879;-73
2021/03/30 09:42:44;;;;;;;;;;;;;;;31.73;19.22;103004.03;5074460;28;1349;-74
2021/03/30 09:45:12;;;;;;;;;;;;;;;32.47;18.56;103001.94;5074514;28;1011;-74
2021/03/30 09:47:39;;;;;;;;;;;;;;;31.74;18.84;103005.66;5073652;28;1165;-73
2021/03/30 09:50:06;;;;;;;;;;;;;;;29.63;21.45;103017.25;5074692;28;812;-74
2021/03/30 09:52:32;;;;;;;;;;;;;;;30.22;20.71;103008.78;5074318;28;922;-73
2021/03/30 09:54:58;;;;;;;;;;;;;;;30.05;21.79;103010.63;5074709;28;874;-73
2021/03/30 09:57:27;;;;;;;;;;;;;;;30.04;21.19;103015.53;5073804;28;1965;-74
2021/03/30 09:59:53;;;;;;;;;;;;;;;29.95;20.76;103007.53;5074312;28;761;-74
2021/03/30 10:02:24;;;;;;;;;;;;;;;30.90;19.73;103017.03;5074443;28;869;-73
2021/03/30 10:04:54;;;;;;;;;;;;;;;31.02;19.69;102998.50;5074203;28;1051;-73
2021/03/30 10:07:20;;;;;;;;;;;;;;;31.55;19.71;102998.72;5073593;28;1259;-73
2021/03/30 10:10:06;;;;;;;;;;;;;;;32.22;18.56;103001.31;5077055;28;814;-73
2021/03/30 10:12:47;;;;;;;;;;;;;;;30.93;19.60;103007.63;5078378;28;991;-74
2021/03/30 10:15:12;;;;;;;;;;;;;;;30.10;20.94;103010.16;5078639;28;1084;-73
2021/03/30 10:17:39;;;;;;;;;;;;;;;30.37;20.89;103004.50;5077686;28;1902;-73
2021/03/30 10:20:05;;;;;;;;;;;;;;;32.12;18.97;103007.28;5078580;28;761;-73
2021/03/30 10:22:33;;;;;;;;;;;;;;;31.24;19.14;103001.75;5077977;28;1113;-73
2021/03/30 10:25:29;;;;;;;;;;;;;;;31.25;19.21;103002.53;5077810;28;812;-74
2021/03/30 10:27:58;;;;;;;;;;;;;;;31.24;19.60;102998.88;5077425;28;1228;-74
2021/03/30 10:30:44;;;;;;;;;;;;;;;31.35;19.15;103000.72;5077765;28;896;-74
2021/03/30 10:33:17;;;;;;;;;;;;;;;31.00;19.14;103003.84;5078367;28;859;-74
2021/03/30 10:35:42;;;;;;;;;;;;;;;31.20;18.62;103000.19;5078001;28;837;-74
2021/03/30 10:38:08;;;;;;;;;;;;;;;30.89;18.97;102989.75;5077726;28;1957;-74
2021/03/30 10:40:37;;;;;;;;;;;;;;;30.00;19.41;102989.97;5077947;28;810;-74
2021/03/30 10:43:20;;;;;;;;;;;;;;;29.73;19.67;103006.97;5078070;28;927;-74
2021/03/30 10:45:46;;;;;;;;;;;;;;;30.27;19.24;103000.53;5077741;28;865;-74
2021/03/30 10:48:12;;;;;;;;;;;;;;;29.36;20.59;103013.50;5076844;28;1288;-74
2021/03/30 10:50:37;;;;;;;;;;;;;;;30.13;19.35;102998.72;5077430;28;853;-74
2021/03/30 10:53:03;;;;;;;;;;;;;;;30.72;19.52;102990.88;5077822;28;825;-74
2021/03/30 10:55:29;;;;;;;;;;;;;;;32.78;16.59;102990.97;5077428;28;863;-74
2021/03/30 10:57:55;;;;;;;;;;;;;;;31.72;17.82;102990.19;5076740;28;1894;-74
2021/03/30 11:00:20;;;;;;;;;;;;;;;32.71;16.67;102991.97;5077267;28;868;-74
2021/03/30 11:02:46;;;;;;;;;;;;;;;31.81;18.03;102981.84;5077397;28;1266;-74
2021/03/30 11:05:12;;;;;;;;;;;;;;;32.46;16.89;102980.31;5077444;28;801;-74
2021/03/30 11:07:38;;;;;;;;;;;;;;;31.91;16.94;102977.13;5076503;28;1212;-74
2021/03/30 11:10:06;;;;;;;;;;;;;;;33.10;16.99;102975.78;5077351;28;792;-74
2021/03/30 11:12:33;;;;;;;;;;;;;;;32.69;16.00;102980.16;5077110;28;824;-75
2021/03/30 11:14:58;;;;;;;;;;;;;;;31.70;16.77;102961.28;5077329;28;977;-75
2021/03/30 11:17:23;;;;;;;;;;;;;;;29.52;18.85;102973.91;5081963;28;2002;-74
2021/03/30 11:19:48;;;;;;;;;;;;;;;30.12;18.15;102976.34;5076318;28;908;-74
2021/03/30 11:22:14;;;;;;;;;;;;;;;29.92;18.60;102970.56;5076047;28;927;-73
2021/03/30 11:24:42;;;;;;;;;;;;;;;28.84;19.39;102971.78;5076592;28;861;-74
2021/03/30 11:27:08;;;;;;;;;;;;;;;29.39;18.60;102959.41;5076008;28;1200;-74
2021/03/30 11:35:00;;;;;;;;;;;;;;;30.08;17.79;102959.31;5076400;28;958;-74
2021/03/30 11:39:54;;;;;;;;;;;;;;;30.70;17.68;102951.41;5076506;28;880;-74
2021/03/30 11:42:21;;;;;;;;;;;;;;;31.84;16.95;102941.78;5076185;28;1035;-74
2021/03/30 11:44:46;;;;;;;;;;;;;;;31.89;16.38;102953.91;5076288;28;801;-74
2021/03/30 11:47:12;;;;;;;;;;;;;;;33.26;15.93;102945.50;5075566;28;1181;-74
2021/03/30 11:49:38;;;;;;;;;;;;;;;32.04;14.69;102947.41;5075892;28;966;-74
2021/03/30 11:52:04;;;;;;;;;;;;;;;32.35;16.82;102947.09;5076024;28;888;-74
2021/03/30 11:54:31;;;;;;;;;;;;;;;33.18;14.45;102944.94;5076056;28;812;-74
2021/03/30 11:56:56;;;;;;;;;;;;;;;32.54;15.36;102942.53;5075434;28;1934;-74
2021/03/30 11:59:22;;;;;;;;;;;;;;;31.20;16.22;102943.97;5075228;28;892;-74
2021/03/30 12:01:47;;;;;;;;;;;;;;;31.15;17.36;102940.78;5076038;28;1026;-73
2021/03/30 12:04:13;;;;;;;;;;;;;;;31.64;16.59;102938.16;5075506;28;881;-73
2021/03/30 12:06:39;;;;;;;;;;;;;;;32.02;15.86;102938.50;5075708;28;1310;-74
2021/03/30 12:09:04;;;;;;;;;;;;;;;30.69;17.38;102937.56;5075208;28;797;-74
2021/03/30 12:11:31;;;;;;;;;;;;;;;30.73;16.73;102926.91;5075226;28;900;-74
2021/03/30 12:13:57;;;;;;;;;;;;;;;30.93;15.88;102933.47;5075426;28;995;-74
2021/03/30 12:16:23;;;;;;;;;;;;;;;31.37;14.63;102927.72;5075341;28;1902;-74
2021/03/30 12:18:48;;;;;;;;;;;;;;;30.78;15.75;102925.59;5075063;28;1023;-74
2021/03/30 12:21:14;;;;;;;;;;;;;;;31.40;15.40;102920.31;5075125;28;975;-74
2021/03/30 12:23:39;;;;;;;;;;;;;;;30.63;16.76;102922.19;5075289;28;910;-75
2021/03/30 12:26:05;;;;;;;;;;;;;;;31.64;15.56;102921.03;5075297;28;1181;-74
2021/03/30 12:28:30;;;;;;;;;;;;;;;30.86;15.27;102922.19;5074510;28;1042;-74
2021/03/30 12:30:56;;;;;;;;;;;;;;;30.27;15.53;102931.38;5074981;28;1034;-74
2021/03/30 12:33:21;;;;;;;;;;;;;;;30.64;14.75;102920.97;5075062;28;852;-74
2021/03/30 12:35:46;;;;;;;;;;;;;;;30.55;14.78;102916.63;5075130;28;1062;-74
2021/03/30 12:38:12;;;;;;;;;;;;;;;30.77;15.09;102915.44;5074785;28;1898;-73
2021/03/30 12:40:37;;;;;;;;;;;;;;;30.58;14.90;102912.13;5074727;28;1053;-74
2021/03/30 12:43:04;;;;;;;;;;;;;;;31.31;15.32;102903.78;5074670;28;832;-74
2021/03/30 12:45:30;;;;;;;;;;;;;;;30.94;15.51;102911.47;5074916;28;943;-74
2021/03/30 12:47:56;;;;;;;;;;;;;;;30.02;16.02;102912.63;5074768;28;1169;-74
2021/03/30 12:50:26;;;;;;;;;;;;;;;29.94;17.93;102906.25;5075065;28;852;-74
2021/03/30 12:52:51;;;;;;;;;;;;;;;31.53;15.90;102907.00;5074813;28;835;-74
2021/03/30 12:55:16;;;;;;;;;;;;;;;29.72;16.93;102907.78;5074913;28;958;-74
2021/03/30 12:57:42;;;;;;;;;;;;;;;29.51;18.14;102903.19;5073991;28;1902;-74
2021/03/30 13:00:08;;;;;;;;;;;;;;;30.61;15.98;102904.75;5074503;28;843;-74
2021/03/30 13:02:33;;;;;;;;;;;;;;;29.54;16.75;102900.28;5074238;28;962;-74
2021/03/30 13:04:59;;;;;;;;;;;;;;;29.50;16.23;102896.66;5074282;28;852;-75
2021/03/30 13:07:24;;;;;;;;;;;;;;;29.77;15.25;102893.88;5073950;28;1168;-74
2021/03/30 13:09:50;;;;;;;;;;;;;;;29.54;15.19;102900.28;5074556;28;968;-74
2021/03/30 13:12:16;;;;;;;;;;;;;;;28.36;16.32;102891.00;5074751;28;859;-74